25 de setembro de 2022

Hora Código Clima Temp. Visibilidade Tecto Vento METAR/SPECI
3:00 da manhã
V
57 °F 15 mi 4.500 ft 080° 080° 5 kt METAR CYYZ 250700Z 08005KT 15SM BKN045 BKN130 14/12 A2971 RMK SC5AC2 SLP062 DENSITY ALT 900FT
2:00 da manhã
V
59 °F 15 mi 5.800 ft 100° 100° 4 kt METAR CYYZ 250600Z 10004KT 15SM BKN058 OVC100 15/09 A2974 RMK SC7AC1 SLP074 DENSITY ALT 900FT
1:00 da manhã
V
59 °F 15 mi 4.300 ft 120° 120° 3 kt METAR CYYZ 250500Z 12003KT 090V150 15SM OVC043 15/08 A2977 RMK SC8 SLP084 DENSITY ALT 900FT
12:00 da manhã
V
59 °F 15 mi 5.500 ft 140° 140° 3 kt METAR CYYZ 250400Z 14003KT 15SM OVC055 15/09 A2980 RMK SC8 SLP094 DENSITY ALT 900FT

24 de setembro de 2022

Hora Código Clima Temp. Visibilidade Tecto Vento METAR/SPECI
11:00 da tarde
V
59 °F 15 mi 5.500 ft 190° 190° 2 kt METAR CYYZ 250300Z 19002KT 15SM OVC055 15/08 A2983 RMK SC8 SLP103 DENSITY ALT 900FT
10:00 da tarde
V
59 °F 15 mi 5.900 ft 220° 220° 4 kt METAR CYYZ 250200Z 22004KT 15SM OVC059 15/09 A2984 RMK SC8 SLP109 DENSITY ALT 800FT
9:00 da tarde
V
59 °F 15 mi 6.600 ft 210° 210° 4 kt METAR CYYZ 250100Z 21004KT 15SM OVC066 15/09 A2986 RMK AC8 SLP115 DENSITY ALT 800FT
8:28 da tarde
V
59 °F 15 mi 6.700 ft 220° 220° 5 kt METAR CYYZ 250028Z 22005KT 15SM OVC067 15/08 A2987 RMK AC8 SLP119 DENSITY ALT 800FT
8:00 da tarde
V
59 °F 15 mi 7.200 ft 230° 230° 10 kt METAR CYYZ 250000Z 23010KT 15SM -RA OVC072 15/08 A2988 RMK AC8 SLP121 DENSITY ALT 800FT
7:00 da tarde
V
61 °F 15 mi 7.900 ft 220° 220° 9 kt METAR CYYZ 242300Z 22009KT 15SM OVC079 16/06 A2988 RMK AC8 SLP123 DENSITY ALT 900FT
6:00 da tarde
V
61 °F 15 mi 8.700 ft 150° 150° 6 kt METAR CYYZ 242200Z 15006KT 15SM BKN087 16/08 A2990 RMK AC7 SLP128 DENSITY ALT 900FT
5:00 da tarde
V
61 °F 15 mi 9.400 ft 150° 150° 8 kt METAR CYYZ 242100Z 15008KT 15SM FEW040 BKN094 16/07 A2991 RMK CF1AC7 CF TR SLP132 DENSITY ALT 800FT
4:00 da tarde
V
61 °F 15 mi 11.000 ft 130° 130° 7 kt METAR CYYZ 242000Z 13007KT 15SM FEW040 BKN110 BKN150 BKN250 16/06 A2992 RMK CF1AC5AC1CI1 CF TR PRESFR SLP136 DENSITY ALT 900FT
3:00 da tarde
V
63 °F 15 mi 16.000 ft 150° 150° 6 kt METAR CYYZ 241900Z 15006KT 15SM FEW040 FEW120 BKN160 BKN250 17/07 A2994 RMK CF1AC2AC3CI1 CF TR SLP144 DENSITY ALT 1000FT
2:00 da tarde
V
63 °F 15 mi 25.000 ft 190° 190° 8 kt METAR CYYZ 241800Z 19008KT 130V220 15SM FEW040 FEW180 BKN250 17/06 A2998 RMK CF1AC2CI3 CF TR SLP157 DENSITY ALT 900FT
1:00 da tarde
V
64 °F 15 mi - 270° 270° 3 kt METAR CYYZ 241700Z 27003KT 15SM FEW040 FEW180 SCT250 18/05 A3001 RMK CF1AC1CI2 CF TR SLP165 DENSITY ALT 1000FT
12:00 da tarde
V
61 °F 15 mi - 270° 270° 2 kt METAR CYYZ 241600Z 27002KT 15SM FEW035 FEW180 SCT260 16/05 A3004 RMK CF1AC1CI2 AC TR SLP176 DENSITY ALT 700FT
11:00 da manhã
V
59 °F 15 mi 26.000 ft Var 000° 0 kt METAR CYYZ 241500Z 00000KT 15SM FEW030 FEW180 BKN260 15/05 A3006 RMK CF1AC1CI3 SLP183
10:00 da manhã
V
55 °F 15 mi 26.000 ft 050° 050° 3 kt METAR CYYZ 241400Z 05003KT 15SM FEW030 FEW190 BKN260 13/06 A3007 RMK CU1AC2CI4 CU TR SLP186
9:00 da manhã
V
52 °F 15 mi 25.000 ft Var 000° 0 kt METAR CYYZ 241300Z 00000KT 15SM FEW180 SCT210 BKN250 11/06 A3008 RMK AC2CC2CI1 SLP190
8:00 da manhã
V
48 °F 15 mi 25.000 ft 270° 270° 4 kt METAR CYYZ 241200Z 27004KT 15SM SCT200 BKN250 09/07 A3009 RMK CC4CI1 SLP194
7:00 da manhã
V
43 °F 15 mi - 270° 270° 3 kt METAR CYYZ 241100Z 27003KT 260V330 15SM FEW180 FEW240 06/05 A3009 RMK AC1CI2 AC TR SLP195
6:00 da manhã
V
45 °F 15 mi - 270° 270° 4 kt METAR CYYZ 241000Z 27004KT 15SM SCT210 07/05 A3009 RMK CI3 SLP196
5:00 da manhã
V
43 °F 15 mi - 260° 260° 6 kt METAR CYYZ 240900Z 26006KT 15SM SCT220 06/05 A3010 RMK CI3 SLP199
4:00 da manhã
V
45 °F 15 mi - 280° 280° 4 kt METAR CYYZ 240800Z 28004KT 15SM SCT230 07/05 A3010 RMK CI3 SLP199
3:00 da manhã
V
46 °F 15 mi - 280° 280° 5 kt METAR CYYZ 240700Z 28005KT 15SM SCT240 08/05 A3010 RMK CI4 SLP198
2:00 da manhã
V
45 °F 15 mi 24.000 ft 260° 260° 5 kt METAR CYYZ 240600Z 26005KT 15SM BKN240 07/05 A3012 RMK CI5 SLP205
1:00 da manhã
V
46 °F 15 mi - 280° 280° 4 kt METAR CYYZ 240500Z 28004KT 15SM SCT260 08/04 A3012 RMK CI3 SLP206
12:00 da manhã
V
50 °F 15 mi - 330° 330° 3 kt METAR CYYZ 240400Z 33003KT 300V010 15SM SCT230 10/05 A3013 RMK CI4 SLP208

23 de setembro de 2022

Hora Código Clima Temp. Visibilidade Tecto Vento METAR/SPECI
11:00 da tarde
V
50 °F 15 mi - 020° 020° 6 kt METAR CYYZ 240300Z 02006KT 15SM SCT230 10/05 A3013 RMK CI3 SLP207
10:00 da tarde
V
54 °F 15 mi - 330° 330° 7 kt METAR CYYZ 240200Z 33007KT 15SM FEW200 12/05 A3013 RMK CI2 SLP209
9:00 da tarde
V
54 °F 15 mi - 330° 330° 6 kt METAR CYYZ 240100Z 33006KT 15SM FEW260 12/05 A3015 RMK CI1 CI TR SLP213
8:00 da tarde
V
55 °F 15 mi - 010° 010° 10 kt METAR CYYZ 240000Z 01010KT 15SM FEW260 13/04 A3012 RMK CI1 SLP206
7:00 da tarde
V
57 °F 15 mi - 350° 350° 10 kt METAR CYYZ 232300Z 35010KT 15SM FEW050 FEW260 14/04 A3013 RMK CF1CI1 CF TR SLP208
6:00 da tarde
V
59 °F 15 mi - 360° 360° 8 kt METAR CYYZ 232200Z 36008KT 15SM FEW050 FEW230 15/03 A3011 RMK CF1CI1 CF TR CI TR SLP202 DENSITY ALT 600FT
5:00 da tarde
V
61 °F 15 mi - 350° 350° 11 kt METAR CYYZ 232100Z 35011KT 15SM FEW055 16/02 A3012 RMK CF1 CF TR SLP205 DENSITY ALT 600FT
4:00 da tarde
V
61 °F 15 mi - 350° 350° 12 - 18 kt METAR CYYZ 232000Z 35012G18KT 15SM FEW055 16/02 A3013 RMK CF1 CF TR SLP207 DENSITY ALT 600FT
3:00 da tarde
V
61 °F 15 mi - 350° 350° 11 - 20 kt METAR CYYZ 231900Z 35011G20KT 15SM FEW060 16/02 A3013 RMK CU1 CU TR SLP208 DENSITY ALT 600FT
2:00 da tarde
V
59 °F 15 mi - 330° 330° 16 - 21 kt METAR CYYZ 231800Z 33016G21KT 15SM FEW060 15/01 A3016 RMK CU1 CU TR SLP218
1:00 da tarde
V
57 °F 15 mi - 350° 350° 10 - 22 kt METAR CYYZ 231700Z 35010G22KT 15SM FEW055 14/00 A3018 RMK CU1 CU TR SLP225
12:00 da tarde
V
54 °F 15 mi - 350° 350° 15 kt METAR CYYZ 231600Z 35015KT 15SM FEW050 12/M01 A3020 RMK CU1 SLP231
11:00 da manhã
V
52 °F 15 mi - 350° 350° 14 - 20 kt METAR CYYZ 231500Z 35014G20KT 15SM FEW045 11/M01 A3020 RMK CU1 SLP231
10:00 da manhã
V
50 °F 15 mi - 010° 010° 19 - 28 kt METAR CYYZ 231400Z 01019G28KT 15SM FEW040 10/M01 A3019 RMK SC1 SC TR SLP228
9:00 da manhã
V
46 °F 15 mi - 010° 010° 13 kt METAR CYYZ 231300Z 01013KT 15SM FEW040 08/M00 A3018 RMK SC1 SC TR SLP224
8:00 da manhã
V
43 °F 15 mi - 340° 340° 8 kt METAR CYYZ 231200Z 34008KT 15SM FEW040 06/00 A3017 RMK SC2 SLP222
7:00 da manhã
V
43 °F 15 mi - 340° 340° 11 kt METAR CYYZ 231100Z 34011KT 15SM FEW030 06/M00 A3015 RMK SC1 SLP217
6:00 da manhã
V
41 °F 15 mi - 340° 340° 7 kt METAR CYYZ 231000Z 34007KT 15SM SKC 05/M00 A3014 RMK SLP213
5:00 da manhã
V
43 °F 15 mi - 340° 340° 9 kt METAR CYYZ 230900Z 34009KT 15SM SKC 06/M00 A3013 RMK SLP209
4:00 da manhã
V
43 °F 15 mi - 330° 330° 9 kt METAR CYYZ 230800Z 33009KT 15SM FEW045 06/M01 A3012 RMK SC1 SC TR SLP204
3:00 da manhã
V
45 °F 15 mi - 320° 320° 11 kt METAR CYYZ 230700Z 32011KT 15SM FEW045 07/M00 A3011 RMK SC1 SC TR SLP201
Dados mais antigos

Nós e terceiros acompanhamos seu comportamento na internet em nosso site com cookies. Se você continuar, nós assumimos que você concorda com nossa política de cookies. Saiba mais